Time;durP1;ratioP1;P1;durP2;ratioP2;P2;SDS_P1;SDS_P2;PMS_P1;PMS_P2;Temp;Humidity;BMP_temperature;BMP_pressure;BME280_temperature;BME280_humidity;BME280_pressure;Samples;Min_cycle;Max_cycle;Signal;HPM_P1;HPM_P2
2022/06/19 00:03:07;;;;;;;21.67;6.63;;;;;;;25.94;40.90;97613.28;8386212;28;20238;-76
2022/06/19 00:07:11;;;;;;;17.83;6.03;;;;;;;25.93;40.32;97608.16;8386110;28;20298;-76
2022/06/19 00:11:18;;;;;;;18.37;6.57;;;;;;;25.89;40.66;97602.38;8385911;28;20238;-76
2022/06/19 00:15:21;;;;;;;24.77;6.63;;;;;;;25.81;41.04;97590.97;8385931;28;20252;-76
2022/06/19 00:19:23;;;;;;;16.70;6.17;;;;;;;25.84;40.44;97591.44;8385448;28;20223;-75
2022/06/19 00:23:26;;;;;;;21.60;6.27;;;;;;;25.66;40.71;97588.22;8385575;28;20239;-75
2022/06/19 00:27:30;;;;;;;22.50;6.40;;;;;;;25.63;40.78;97586.75;8385650;28;20236;-76
2022/06/19 00:31:33;;;;;;;15.83;6.00;;;;;;;25.78;40.67;97584.19;8385260;28;20237;-76
2022/06/19 00:35:36;;;;;;;20.17;5.60;;;;;;;25.56;40.85;97570.69;8385242;28;20338;-76
2022/06/19 00:39:40;;;;;;;21.53;5.97;;;;;;;25.38;41.25;97567.47;8385136;28;20234;-76
2022/06/19 00:43:59;;;;;;;19.77;6.03;;;;;;;25.50;40.97;97557.31;8384962;28;20530;-76
2022/06/19 00:48:05;;;;;;;19.63;6.17;;;;;;;25.52;41.10;97548.19;8384988;28;20233;-76
2022/06/19 00:52:11;;;;;;;21.17;5.93;;;;;;;25.41;40.97;97535.31;8384829;28;20247;-76
2022/06/19 00:56:17;;;;;;;16.90;5.60;;;;;;;25.30;41.20;97520.63;8384408;28;20229;-76
2022/06/19 01:00:26;;;;;;;15.73;5.43;;;;;;;25.15;41.53;97509.91;8384651;28;20624;-77
2022/06/19 01:04:32;;;;;;;23.17;6.10;;;;;;;24.91;42.24;97502.84;8384153;28;20250;-76
2022/06/19 01:08:35;;;;;;;16.80;5.30;;;;;;;24.95;42.00;97492.75;8384454;28;20257;-76
2022/06/19 01:12:38;;;;;;;17.90;4.77;;;;;;;24.86;42.61;97491.09;8384217;28;20604;-76
2022/06/19 01:16:42;;;;;;;17.07;5.30;;;;;;;25.10;41.81;97476.97;8384171;28;20231;-76
2022/06/19 01:20:45;;;;;;;17.47;5.63;;;;;;;25.09;42.53;97478.78;8384058;28;20408;-76
2022/06/19 01:25:02;;;;;;;21.97;6.43;;;;;;;24.77;42.73;97474.44;8384003;28;20227;-77
2022/06/19 01:29:05;;;;;;;21.50;5.23;;;;;;;24.89;42.54;97467.75;8383696;28;20240;-77
2022/06/19 01:33:12;;;;;;;16.17;5.83;;;;;;;24.85;42.68;97452.41;8383407;28;20439;-76
2022/06/19 01:37:17;;;;;;;14.67;5.27;;;;;;;24.52;43.38;97461.25;8383396;28;20223;-76
2022/06/19 01:41:24;;;;;;;14.00;5.03;;;;;;;24.60;43.33;97455.13;8383263;28;20542;-76
2022/06/19 01:45:27;;;;;;;15.20;5.30;;;;;;;24.46;43.69;97443.34;8382653;28;20538;-76
2022/06/19 01:49:30;;;;;;;18.87;5.00;;;;;;;24.63;43.21;97446.00;8382933;28;20239;-76
2022/06/19 01:53:41;;;;;;;13.17;4.40;;;;;;;24.77;42.59;97443.47;8382866;28;20557;-76
2022/06/19 01:57:48;;;;;;;14.30;4.30;;;;;;;24.76;42.82;97441.81;8382364;28;20299;-76
2022/06/19 02:01:53;;;;;;;14.27;4.50;;;;;;;24.56;42.93;97437.91;8381482;28;20235;-76
2022/06/19 02:05:57;;;;;;;21.90;4.53;;;;;;;24.56;42.63;97425.50;8380734;28;20229;-76
2022/06/19 02:10:00;;;;;;;15.30;4.57;;;;;;;24.46;42.85;97416.06;8381436;28;20235;-76
2022/06/19 02:14:07;;;;;;;14.17;4.47;;;;;;;24.48;42.55;97411.44;8381384;28;20439;-76
2022/06/19 02:18:12;;;;;;;14.73;4.40;;;;;;;24.27;43.18;97410.16;8381181;28;20232;-76
2022/06/19 02:22:16;;;;;;;19.07;4.80;;;;;;;24.17;43.42;97412.16;8381066;28;20243;-76
2022/06/19 02:26:19;;;;;;;19.27;5.30;;;;;;;24.51;43.05;97419.03;8380984;28;20544;-77
2022/06/19 02:30:23;;;;;;;11.77;4.20;;;;;;;24.50;42.86;97425.31;8380477;28;20223;-76
2022/06/19 02:34:28;;;;;;;12.23;4.50;;;;;;;24.45;43.06;97427.66;8380721;28;20232;-76
2022/06/19 02:38:31;;;;;;;10.50;4.37;;;;;;;24.38;43.26;97432.78;8380768;28;20238;-76
2022/06/19 02:42:36;;;;;;;14.20;4.77;;;;;;;24.42;43.24;97433.28;8380307;28;20236;-76
2022/06/19 02:46:41;;;;;;;13.60;4.07;;;;;;;24.45;43.09;97431.13;8380460;28;20255;-75
2022/06/19 02:50:44;;;;;;;10.90;4.43;;;;;;;24.33;43.54;97425.38;8380205;28;20235;-76
2022/06/19 02:54:47;;;;;;;9.53;3.90;;;;;;;24.31;43.74;97422.06;8380295;28;20227;-76
2022/06/19 02:58:50;;;;;;;15.03;4.27;;;;;;;24.20;44.02;97420.59;8380139;28;20410;-76
2022/06/19 03:02:56;;;;;;;15.83;4.00;;;;;;;24.22;44.30;97422.22;8380163;28;20227;-76
2022/06/19 03:06:59;;;;;;;10.70;3.80;;;;;;;24.17;44.13;97412.97;8379858;28;20227;-76
2022/06/19 03:11:04;;;;;;;12.00;4.00;;;;;;;24.18;44.47;97419.94;8379777;28;20266;-76
2022/06/19 03:15:08;;;;;;;11.50;3.90;;;;;;;24.17;44.14;97420.91;8379778;28;20411;-76
2022/06/19 03:19:13;;;;;;;10.90;4.13;;;;;;;24.17;44.53;97420.09;8379763;28;20258;-76
2022/06/19 03:23:16;;;;;;;9.87;4.30;;;;;;;24.13;44.14;97432.00;8379494;28;20409;-77
2022/06/19 03:27:18;;;;;;;7.73;3.70;;;;;;;24.06;44.21;97446.88;8379542;28;20235;-76
2022/06/19 03:31:25;;;;;;;16.97;4.70;;;;;;;23.96;44.82;97447.06;8370971;28;20223;-75
2022/06/19 03:35:29;;;;;;;8.63;3.97;;;;;;;23.95;44.98;97445.38;8379293;28;20308;-76
2022/06/19 03:39:32;;;;;;;13.90;4.00;;;;;;;24.02;44.45;97449.03;8379375;28;20407;-76
2022/06/19 03:43:35;;;;;;;17.33;7.63;;;;;;;23.97;44.37;97436.31;8379170;28;20394;-76
2022/06/19 03:47:39;;;;;;;23.60;13.87;;;;;;;24.06;44.32;97434.47;8379351;28;20223;-76
2022/06/19 03:51:44;;;;;;;12.33;7.67;;;;;;;24.09;44.00;97433.34;8378941;28;20248;-76
2022/06/19 03:55:47;;;;;;;11.00;3.73;;;;;;;23.82;43.69;97437.97;8378927;28;20225;-76
2022/06/19 03:59:50;;;;;;;8.43;3.60;;;;;;;24.01;43.35;97428.88;8379094;28;20374;-76
2022/06/19 04:03:54;;;;;;;10.17;3.67;;;;;;;24.05;42.68;97426.72;8378748;28;20227;-76
2022/06/19 04:07:59;;;;;;;9.43;3.83;;;;;;;23.99;42.77;97434.31;8378416;28;20573;-76
2022/06/19 04:12:02;;;;;;;14.07;3.27;;;;;;;23.93;42.75;97436.78;8378491;28;20239;-76
2022/06/19 04:16:09;;;;;;;11.40;3.03;;;;;;;24.23;42.04;97432.66;8378755;28;20233;-76
2022/06/19 04:20:13;;;;;;;10.53;3.10;;;;;;;24.18;42.09;97421.75;8378448;28;20428;-77
2022/06/19 04:24:18;;;;;;;7.93;3.10;;;;;;;23.98;42.93;97421.25;8378452;28;20648;-77
2022/06/19 04:28:24;;;;;;;6.90;2.93;;;;;;;24.11;42.70;97411.00;8378540;28;20236;-77
2022/06/19 04:32:27;;;;;;;13.27;3.80;;;;;;;23.89;43.21;97398.47;8350861;28;20278;-77
2022/06/19 04:36:30;;;;;;;9.07;2.73;;;;;;;23.88;43.57;97392.34;8351202;28;20231;-76
2022/06/19 04:40:35;;;;;;;9.93;3.00;;;;;;;23.86;43.64;97385.59;8351045;28;20239;-76
2022/06/19 04:44:38;;;;;;;8.60;3.33;;;;;;;24.02;43.37;97390.84;8351085;28;20235;-76
2022/06/19 04:48:41;;;;;;;9.27;3.30;;;;;;;23.96;43.21;97392.34;8351236;28;20488;-77
2022/06/19 04:52:45;;;;;;;11.07;3.23;;;;;;;24.18;43.04;97387.38;8350871;28;20227;-77
2022/06/19 04:56:49;;;;;;;8.57;3.00;;;;;;;24.07;43.01;97391.19;8350496;28;20234;-77
2022/06/19 05:00:53;;;;;;;7.43;3.33;;;;;;;23.96;43.41;97392.34;8350722;28;20224;-77
2022/06/19 05:04:56;;;;;;;7.20;3.37;;;;;;;24.15;43.30;97396.44;8350628;28;20577;-76
2022/06/19 05:08:59;;;;;;;17.47;3.27;;;;;;;24.25;43.20;97398.09;8350488;28;20236;-76
2022/06/19 05:13:05;;;;;;;9.90;3.30;;;;;;;24.12;43.63;97393.31;8350267;28;20562;-76
2022/06/19 05:17:08;;;;;;;8.17;3.20;;;;;;;24.52;42.52;97383.66;8350412;28;20258;-76
2022/06/19 05:21:12;;;;;;;6.43;3.40;;;;;;;24.71;42.33;97383.28;8350125;28;20232;-77
2022/06/19 05:25:14;;;;;;;13.63;3.50;;;;;;;24.70;42.36;97386.91;8350221;28;20454;-76
2022/06/19 05:29:19;;;;;;;6.37;2.70;;;;;;;24.68;42.65;97388.91;8349835;28;20235;-76
2022/06/19 05:33:22;;;;;;;6.40;2.70;;;;;;;24.75;42.15;97392.53;8349401;28;20315;-75
2022/06/19 05:37:25;;;;;;;8.73;3.10;;;;;;;24.87;42.08;97387.66;8349515;28;20251;-76
2022/06/19 05:41:30;;;;;;;14.53;3.20;;;;;;;25.01;41.98;97380.81;8348387;28;20238;-76
2022/06/19 05:45:34;;;;;;;8.57;2.70;;;;;;;25.24;41.53;97366.81;8349318;28;20466;-76
2022/06/19 05:49:37;;;;;;;14.57;3.37;;;;;;;25.26;41.00;97370.91;8349313;28;20305;-76
2022/06/19 05:53:41;;;;;;;9.07;3.23;;;;;;;25.29;40.99;97381.19;8349024;28;20244;-76
2022/06/19 05:57:44;;;;;;;10.43;3.73;;;;;;;25.55;40.78;97382.63;8348965;28;20414;-76
2022/06/19 06:01:48;;;;;;;10.03;3.07;;;;;;;25.35;41.15;97380.47;8349081;28;20223;-76
2022/06/19 06:05:51;;;;;;;10.30;3.07;;;;;;;25.47;40.89;97375.56;8348922;28;20225;-77
2022/06/19 06:09:54;;;;;;;9.97;3.27;;;;;;;25.94;40.12;97369.25;8348707;28;20232;-76
2022/06/19 06:13:57;;;;;;;9.10;3.40;;;;;;;25.73;40.69;97369.91;8348771;28;20519;-77
2022/06/19 06:18:01;;;;;;;7.87;2.73;;;;;;;25.93;39.91;97370.28;8348518;28;20229;-76
2022/06/19 06:22:05;;;;;;;8.77;3.37;;;;;;;26.04;39.78;97363.69;8348476;28;20228;-77
2022/06/19 06:26:10;;;;;;;8.43;3.30;;;;;;;26.33;39.69;97360.25;8348523;28;20226;-77
2022/06/19 06:30:13;;;;;;;12.47;3.30;;;;;;;26.24;39.77;97363.19;8348266;28;20560;-77
2022/06/19 06:34:18;;;;;;;10.47;3.20;;;;;;;26.44;39.16;97366.09;8348040;28;20246;-77
2022/06/19 06:38:21;;;;;;;9.10;3.27;;;;;;;26.32;39.62;97358.59;8348011;28;20305;-77
2022/06/19 06:42:24;;;;;;;10.00;3.27;;;;;;;26.84;38.71;97348.06;8347491;28;20222;-76
2022/06/19 06:46:28;;;;;;;12.87;3.30;;;;;;;27.17;37.85;97344.94;8347662;28;20575;-76
2022/06/19 06:50:32;;;;;;;12.50;3.60;;;;;;;27.34;38.04;97345.56;8347826;28;20318;-77
2022/06/19 06:54:37;;;;;;;9.43;3.03;;;;;;;27.33;37.62;97355.38;8347516;28;20264;-76
2022/06/19 06:58:40;;;;;;;14.67;4.23;;;;;;;27.38;37.51;97349.47;8347818;28;20235;-77
2022/06/19 07:02:43;;;;;;;14.73;3.93;;;;;;;27.17;36.97;97351.09;8347463;28;20240;-77
2022/06/19 07:06:47;;;;;;;11.50;3.30;;;;;;;27.65;36.19;97356.69;8347346;28;20323;-77
2022/06/19 07:10:50;;;;;;;13.87;3.80;;;;;;;27.89;36.29;97346.69;8347102;28;20233;-76
2022/06/19 07:14:53;;;;;;;8.47;3.50;;;;;;;28.18;35.61;97345.66;8346782;28;20242;-77
2022/06/19 07:18:55;;;;;;;8.80;3.03;;;;;;;28.42;34.97;97332.91;8346645;28;20234;-77
2022/06/19 07:23:00;;;;;;;13.13;3.90;;;;;;;28.53;34.88;97335.03;8346686;28;20305;-77
2022/06/19 07:27:03;;;;;;;12.53;3.50;;;;;;;28.69;34.68;97333.84;8346546;28;20416;-77
2022/06/19 07:31:06;;;;;;;10.83;3.83;;;;;;;29.03;33.82;97317.00;8346540;28;20231;-77
2022/06/19 07:35:10;;;;;;;17.00;3.50;;;;;;;29.11;34.14;97312.47;8346321;28;20413;-77
2022/06/19 07:39:14;;;;;;;11.20;3.90;;;;;;;29.33;33.41;97313.16;8346359;28;20253;-77
2022/06/19 07:43:16;;;;;;;16.13;3.70;;;;;;;29.56;32.29;97315.44;8346173;28;20249;-77
2022/06/19 07:51:40;;;;;;;17.03;4.80;;;;;;;29.94;31.80;97320.97;8354225;28;20246;-77
2022/06/19 07:55:44;;;;;;;12.83;3.97;;;;;;;30.33;32.01;97330.00;8345912;28;20228;-77
2022/06/19 07:59:47;;;;;;;15.57;4.50;;;;;;;30.45;31.61;97332.81;8346044;28;20550;-76
2022/06/19 08:03:50;;;;;;;18.23;4.70;;;;;;;30.41;31.59;97328.94;8346248;28;20238;-77
2022/06/19 08:07:53;;;;;;;18.47;4.03;;;;;;;30.74;30.85;97309.28;8352317;28;20230;-77
2022/06/19 08:11:58;;;;;;;15.17;4.27;;;;;;;31.10;30.83;97314.06;8352431;28;20249;-77
2022/06/19 08:16:03;;;;;;;16.27;4.33;;;;;;;31.45;29.91;97312.78;8352075;28;20308;-77
2022/06/19 08:20:07;;;;;;;13.00;4.13;;;;;;;31.77;29.71;97313.59;8351844;28;20278;-77
2022/06/19 08:24:10;;;;;;;17.57;4.80;;;;;;;31.69;29.93;97316.56;8351646;28;20239;-77
2022/06/19 08:28:16;;;;;;;16.57;4.80;;;;;;;32.14;29.23;97317.19;8351593;28;20238;-76
2022/06/19 08:32:18;;;;;;;13.37;4.50;;;;;;;32.32;28.91;97315.56;8351449;28;20244;-77
2022/06/19 08:36:22;;;;;;;18.50;4.80;;;;;;;32.73;29.04;97309.53;8351329;28;20297;-77
2022/06/19 08:40:38;;;;;;;20.37;4.60;;;;;;;32.76;28.29;97307.44;8359025;28;20230;-76
2022/06/19 08:45:06;;;;;;;19.23;5.07;;;;;;;33.21;28.00;97309.75;8351309;28;20237;-77
2022/06/19 08:49:21;;;;;;;15.00;4.87;;;;;;;33.43;27.31;97310.03;8351182;28;20230;-77
2022/06/19 08:53:48;;;;;;;16.83;5.17;;;;;;;33.75;27.10;97307.88;8350754;28;20232;-76
2022/06/19 08:58:00;;;;;;;13.90;4.90;;;;;;;33.99;27.21;97303.34;8351085;28;20518;-77
2022/06/19 09:02:11;;;;;;;18.43;5.20;;;;;;;34.15;26.96;97311.72;8351096;28;20242;-77
2022/06/19 09:06:16;;;;;;;13.77;5.60;;;;;;;34.28;26.58;97309.63;8350979;28;20388;-77
2022/06/19 09:10:29;;;;;;;14.90;4.97;;;;;;;34.28;25.49;97304.25;8350863;28;20244;-77
2022/06/19 09:14:38;;;;;;;16.87;5.37;;;;;;;34.45;25.70;97306.22;8350191;28;20234;-77
2022/06/19 09:18:48;;;;;;;15.67;5.33;;;;;;;34.59;25.11;97318.31;8350558;28;20235;-77
2022/06/19 09:23:16;;;;;;;18.92;5.90;;;;;;;34.84;24.39;97303.78;8350972;28;20410;-77
2022/06/19 09:27:20;;;;;;;24.50;5.97;;;;;;;34.82;23.82;97305.91;8345994;28;20235;-77
2022/06/19 09:31:31;;;;;;;21.40;5.80;;;;;;;34.82;24.54;97306.72;8350327;28;20287;-77
2022/06/19 09:35:37;;;;;;;16.08;5.10;;;;;;;35.04;23.43;97297.97;8350630;28;20247;-77
2022/06/19 09:39:47;;;;;;;21.45;5.90;;;;;;;35.31;24.15;97286.63;8350498;28;20243;-77
2022/06/19 09:43:54;;;;;;;21.00;5.57;;;;;;;35.49;23.80;97288.25;8350402;28;20542;-77
2022/06/19 09:48:03;;;;;;;18.92;5.72;;;;;;;35.58;23.59;97284.09;8350308;28;20228;-77
2022/06/19 09:52:21;;;;;;;19.05;5.47;;;;;;;35.86;23.07;97287.78;8350104;28;20404;-77
2022/06/19 09:56:33;;;;;;;16.95;5.45;;;;;;;36.00;23.53;97283.66;8349519;28;20550;-77
2022/06/19 10:00:38;;;;;;;19.55;5.68;;;;;;;35.85;22.65;97276.19;8350013;28;20232;-77
2022/06/19 10:04:59;;;;;;;15.45;5.30;;;;;;;36.29;22.10;97270.06;8349809;28;20298;-78
2022/06/19 10:09:11;;;;;;;21.00;5.68;;;;;;;36.26;21.81;97265.19;8349533;28;20228;-76
2022/06/19 10:13:17;;;;;;;17.75;5.10;;;;;;;36.35;21.76;97267.19;8349378;28;20228;-77
2022/06/19 10:17:25;;;;;;;19.40;5.57;;;;;;;36.48;21.02;97263.31;8349280;28;20228;-76
2022/06/19 10:26:15;;;;;;;22.63;5.95;;;;;;;36.64;21.08;97250.81;8349065;28;20385;-76
2022/06/19 10:30:22;;;;;;;22.73;6.00;;;;;;;36.70;20.42;97254.41;8348496;28;20550;-76
2022/06/19 10:34:35;;;;;;;18.88;5.88;;;;;;;36.74;19.95;97245.53;8381359;28;20538;-76
2022/06/19 10:39:01;;;;;;;20.85;5.82;;;;;;;37.02;20.67;97235.56;8381671;28;20232;-76
2022/06/19 10:43:16;;;;;;;25.23;6.22;;;;;;;36.93;19.45;97234.38;8381408;28;20235;-76
2022/06/19 10:47:24;;;;;;;16.40;5.75;;;;;;;36.74;20.26;97237.44;8381385;28;20227;-77
2022/06/19 10:51:39;;;;;;;19.08;5.10;;;;;;;36.57;20.49;97223.22;8380993;28;20250;-77
2022/06/19 10:55:45;;;;;;;19.25;5.32;;;;;;;36.88;19.75;97223.53;8381166;28;20393;-77
2022/06/19 10:59:50;;;;;;;19.52;5.93;;;;;;;37.04;19.49;97227.22;8381185;28;20546;-77
2022/06/19 11:04:08;;;;;;;21.00;6.45;;;;;;;37.22;19.17;97231.44;8380891;28;20232;-77
2022/06/19 11:08:11;;;;;;;23.05;5.38;;;;;;;36.78;19.07;97218.88;8381001;28;20239;-76
2022/06/19 11:12:18;;;;;;;22.98;6.13;;;;;;;37.06;18.96;97219.69;8380745;28;20235;-76
2022/06/19 11:16:22;;;;;;;25.42;5.68;;;;;;;37.04;17.61;97219.94;8380557;28;20237;-77
2022/06/19 11:20:27;;;;;;;18.80;5.63;;;;;;;37.12;18.01;97219.44;8380374;28;20235;-76
2022/06/19 11:24:33;;;;;;;30.02;5.50;;;;;;;37.16;17.73;97207.09;8380520;28;20227;-76
2022/06/19 11:28:43;;;;;;;19.65;5.50;;;;;;;37.35;17.09;97212.09;8380541;28;20258;-76
2022/06/19 11:32:51;;;;;;;21.75;5.15;;;;;;;37.42;17.68;97204.59;8380413;28;20415;-77
2022/06/19 11:36:53;;;;;;;21.85;5.85;;;;;;;37.37;18.06;97209.94;8380428;28;20242;-77
2022/06/19 11:40:58;;;;;;;21.50;5.40;;;;;;;37.60;17.44;97210.66;8384409;28;20238;-76
2022/06/19 11:45:04;;;;;;;24.98;5.25;;;;;;;37.72;17.08;97203.19;8386888;28;20231;-77
2022/06/19 11:49:29;;;;;;;26.27;5.90;;;;;;;37.54;17.36;97199.81;8387043;28;20234;-77
2022/06/19 11:53:41;;;;;;;25.60;5.20;;;;;;;37.34;17.46;97200.50;8386665;28;20223;-76
2022/06/19 11:57:44;;;;;;;24.88;5.65;;;;;;;37.31;17.20;97200.19;8386799;28;20234;-77
2022/06/19 12:01:47;;;;;;;22.08;4.93;;;;;;;37.33;17.74;97190.75;8386635;28;20230;-76
2022/06/19 12:05:56;;;;;;;29.30;6.15;;;;;;;37.85;17.53;97185.69;8386671;28;20238;-77
2022/06/19 12:10:01;;;;;;;20.40;5.38;;;;;;;37.59;17.86;97196.34;8386400;28;20522;-77
2022/06/19 12:14:04;;;;;;;22.83;5.65;;;;;;;37.75;17.97;97194.56;8386237;28;20237;-77
2022/06/19 12:18:16;;;;;;;21.73;5.47;;;;;;;37.90;18.08;97181.13;8386298;28;20581;-77
2022/06/19 12:22:24;;;;;;;20.05;5.30;;;;;;;37.89;17.75;97187.63;8385965;28;20236;-77
2022/06/19 12:26:36;;;;;;;19.92;5.30;;;;;;;37.64;17.81;97182.91;8385405;28;20239;-76
2022/06/19 12:30:42;;;;;;;18.48;5.40;;;;;;;37.90;17.70;97181.13;8385793;28;20593;-77
2022/06/19 12:34:47;;;;;;;18.15;5.35;;;;;;;37.77;17.70;97178.91;8385667;28;20419;-77
2022/06/19 12:38:52;;;;;;;17.35;5.55;;;;;;;37.93;18.24;97174.41;8385615;28;20224;-77
2022/06/19 12:42:59;;;;;;;29.65;5.88;;;;;;;37.91;18.68;97174.66;8385160;28;20535;-77
2022/06/19 12:47:11;;;;;;;22.08;5.38;;;;;;;37.79;18.45;97170.53;8385205;28;20228;-77
2022/06/19 12:51:18;;;;;;;26.80;6.20;;;;;;;37.79;19.14;97171.34;8384699;28;20430;-77
2022/06/19 12:55:39;;;;;;;19.83;5.35;;;;;;;38.06;19.16;97171.22;8384892;28;20430;-77
2022/06/19 12:59:53;;;;;;;23.10;6.45;;;;;;;37.94;19.08;97162.50;8384671;28;20236;-77
2022/06/19 13:04:04;;;;;;;21.88;5.47;;;;;;;37.74;17.94;97163.22;8384705;28;20238;-77
2022/06/19 13:08:12;;;;;;;20.27;5.78;;;;;;;37.95;18.97;97153.31;8384500;28;20227;-77
2022/06/19 13:12:27;;;;;;;23.13;5.25;;;;;;;37.87;18.80;97161.91;8384571;28;20228;-77
2022/06/19 13:16:38;;;;;;;22.40;5.95;;;;;;;37.91;18.47;97157.63;8383724;28;20527;-76
2022/06/19 13:20:43;;;;;;;21.92;5.47;;;;;;;37.82;17.92;97157.31;8384237;28;20232;-76
2022/06/19 13:24:50;;;;;;;23.08;6.13;;;;;;;37.64;17.83;97155.91;8384005;28;20550;-77
2022/06/19 13:29:00;;;;;;;24.58;6.13;;;;;;;37.67;17.85;97149.16;8383896;28;20223;-77
2022/06/19 13:33:12;;;;;;;22.27;6.03;;;;;;;37.62;17.48;97149.91;8383674;28;20235;-77
2022/06/19 13:37:22;;;;;;;19.83;5.60;;;;;;;37.54;17.16;97155.78;8383585;28;20231;-77
2022/06/19 13:41:35;;;;;;;23.65;5.80;;;;;;;37.62;16.68;97143.72;8383194;28;20224;-77
2022/06/19 13:45:48;;;;;;;23.38;6.05;;;;;;;37.54;17.38;97139.59;8383131;28;20239;-77
2022/06/19 13:49:53;;;;;;;27.88;5.63;;;;;;;37.59;17.13;97146.91;8383277;28;20469;-77
2022/06/19 13:54:00;;;;;;;23.90;5.85;;;;;;;37.29;18.23;97142.97;8383038;28;20423;-77
2022/06/19 13:58:07;;;;;;;15.90;5.03;;;;;;;37.73;17.76;97129.19;8382899;28;20559;-77
2022/06/19 14:02:17;;;;;;;22.23;5.35;;;;;;;37.45;17.91;97136.59;8381827;28;20235;-77
2022/06/19 14:06:25;;;;;;;15.65;5.05;;;;;;;37.69;18.63;97122.69;8382879;28;20290;-77
2022/06/19 14:10:47;;;;;;;19.35;5.30;;;;;;;37.34;18.24;97129.50;8382381;28;20545;-76
2022/06/19 14:14:57;;;;;;;22.60;6.47;;;;;;;37.35;17.33;97123.81;8382555;28;20231;-76
2022/06/19 14:19:06;;;;;;;16.23;5.43;;;;;;;37.58;18.35;97124.47;8382218;28;20242;-77
2022/06/19 14:23:14;;;;;;;21.75;6.05;;;;;;;37.45;18.11;97123.09;8382160;28;20239;-77
2022/06/19 14:27:26;;;;;;;21.30;6.00;;;;;;;37.33;18.04;97122.47;8381902;28;20228;-77
2022/06/19 14:31:29;;;;;;;16.38;5.88;;;;;;;37.25;18.49;97115.66;8381429;28;20238;-76
2022/06/19 14:35:35;;;;;;;19.42;5.78;;;;;;;37.23;18.61;97112.41;8381776;28;20286;-76
2022/06/19 14:39:38;;;;;;;18.70;5.85;;;;;;;37.21;19.14;97105.66;8381564;28;20231;-77
2022/06/19 14:43:52;;;;;;;15.05;5.35;;;;;;;37.00;18.67;97097.41;8381385;28;20242;-77
2022/06/19 14:48:00;;;;;;;22.40;6.05;;;;;;;37.00;19.03;97113.59;8381301;28;20227;-77
2022/06/19 14:52:14;;;;;;;20.63;5.63;;;;;;;36.88;19.21;97100.28;8381389;28;20235;-77
2022/06/19 14:56:57;;;;;;;18.88;6.03;;;;;;;36.94;19.13;97093.84;8381301;28;20310;-77
2022/06/19 15:01:02;;;;;;;18.73;6.22;;;;;;;36.91;19.27;97088.97;8380895;28;20234;-77
2022/06/19 15:05:21;;;;;;;17.73;5.90;;;;;;;36.86;19.63;97083.56;8381027;28;20294;-77
2022/06/19 15:09:28;;;;;;;17.75;5.38;;;;;;;36.83;19.63;97088.66;8380536;28;20257;-76
2022/06/19 15:13:33;;;;;;;20.90;6.25;;;;;;;36.68;18.92;97081.25;8380704;28;20227;-76
2022/06/19 15:17:40;;;;;;;17.88;5.50;;;;;;;36.55;19.81;97072.47;8380686;28;20239;-77
2022/06/19 15:21:55;;;;;;;20.58;5.88;;;;;;;36.36;19.65;97082.00;8380667;28;20223;-77
2022/06/19 15:26:48;;;;;;;21.10;5.55;;;;;;;36.27;20.18;97070.06;8380548;28;20227;-77
2022/06/19 15:30:51;;;;;;;17.90;6.30;;;;;;;36.13;19.66;97067.75;8380292;28;20223;-77
2022/06/19 15:34:55;;;;;;;16.08;5.47;;;;;;;36.25;20.22;97061.41;8380256;28;20230;-77
2022/06/19 15:39:20;;;;;;;20.27;5.65;;;;;;;36.24;19.90;97059.81;8380399;28;20235;-76
2022/06/19 15:43:40;;;;;;;18.00;5.78;;;;;;;36.23;20.50;97055.47;8379486;28;20227;-75
2022/06/19 15:48:18;;;;;;;15.65;5.50;;;;;;;36.13;19.75;97064.25;8380043;28;20285;-76
2022/06/19 15:52:26;;;;;;;19.33;5.35;;;;;;;36.17;19.86;97051.91;8380343;28;20235;-79
2022/06/19 15:56:32;;;;;;;17.95;5.55;;;;;;;36.21;20.12;97055.72;8379803;28;20522;-75
2022/06/19 16:00:43;;;;;;;26.92;6.00;;;;;;;35.79;20.58;97049.06;8378877;28;20227;-76
2022/06/19 16:04:49;;;;;;;16.63;5.28;;;;;;;35.84;20.65;97051.03;8379578;28;20338;-77
2022/06/19 16:08:57;;;;;;;23.50;5.78;;;;;;;35.64;20.21;97054.25;8379826;28;20530;-76
2022/06/19 16:13:10;;;;;;;21.08;6.15;;;;;;;35.74;20.98;97054.41;8379719;28;20293;-76
2022/06/19 16:17:25;;;;;;;17.67;5.82;;;;;;;35.63;20.73;97055.31;8379572;28;20232;-77
2022/06/19 16:21:29;;;;;;;21.40;5.85;;;;;;;35.60;21.19;97056.66;8379219;28;20223;-76
2022/06/19 16:25:33;;;;;;;17.63;6.35;;;;;;;35.59;20.91;97064.97;8381057;28;20235;-75
2022/06/19 16:29:39;;;;;;;21.92;6.28;;;;;;;35.53;21.01;97060.56;8385671;28;20231;-76
2022/06/19 16:33:47;;;;;;;15.48;5.85;;;;;;;35.43;21.61;97061.25;8385579;28;20278;-76
2022/06/19 16:46:48;;;;;;;14.18;5.80;;;;;;;35.10;21.93;97068.31;8385200;28;20254;-76
2022/06/19 16:50:55;;;;;;;19.77;6.32;;;;;;;34.90;22.31;97068.84;8385270;28;20588;-76
2022/06/19 16:55:00;;;;;;;14.50;5.60;;;;;;;34.83;22.76;97071.69;8384769;28;20231;-77
2022/06/19 16:59:05;;;;;;;18.45;6.68;;;;;;;34.76;22.78;97073.72;8384574;28;20239;-76
2022/06/19 17:03:14;;;;;;;19.52;6.22;;;;;;;34.72;22.77;97079.84;8384797;28;20431;-76
2022/06/19 17:07:18;;;;;;;17.00;6.28;;;;;;;34.72;23.16;97074.47;8384631;28;20435;-76
2022/06/19 17:11:24;;;;;;;20.65;6.32;;;;;;;34.68;23.65;97070.66;8384536;28;20224;-76
2022/06/19 17:15:27;;;;;;;15.35;5.80;;;;;;;34.54;23.79;97068.25;8383980;28;20223;-76
2022/06/19 17:19:32;;;;;;;19.60;5.95;;;;;;;34.42;24.31;97076.41;8384088;28;20227;-76
2022/06/19 17:23:36;;;;;;;18.20;6.53;;;;;;;34.35;24.05;97072.22;8384127;28;20242;-76
2022/06/19 17:27:58;;;;;;;16.73;6.50;;;;;;;34.20;24.14;97076.28;8383950;28;20238;-77
2022/06/19 17:32:01;;;;;;;15.77;5.88;;;;;;;34.10;24.29;97078.75;8383970;28;20234;-77
2022/06/19 17:36:29;;;;;;;16.15;5.82;;;;;;;34.14;24.61;97082.59;8382926;28;20239;-76
2022/06/19 17:40:36;;;;;;;11.67;5.30;;;;;;;34.03;24.51;97088.81;8383481;28;20241;-77
2022/06/19 17:44:42;;;;;;;15.30;6.22;;;;;;;33.89;24.96;97077.53;8383456;28;20235;-77
2022/06/19 17:48:48;;;;;;;18.83;5.67;;;;;;;33.84;25.42;97075.56;8383437;28;20529;-77
2022/06/19 17:52:51;;;;;;;15.47;5.70;;;;;;;33.69;25.76;97078.75;8383178;28;20225;-77
2022/06/19 17:56:56;;;;;;;17.07;6.50;;;;;;;33.62;26.82;97079.91;8382640;28;20231;-77
2022/06/19 18:01:00;;;;;;;15.77;6.40;;;;;;;33.58;27.33;97087.63;8373098;28;20229;-77
2022/06/19 18:05:06;;;;;;;16.53;5.77;;;;;;;33.46;27.76;97090.34;8349921;28;20234;-77
2022/06/19 18:09:15;;;;;;;18.83;5.57;;;;;;;33.35;28.09;97083.13;8349531;28;20237;-77
2022/06/19 18:13:26;;;;;;;16.87;5.60;;;;;;;33.28;28.09;97093.16;8349359;28;20440;-77
2022/06/19 18:21:50;;;;;;;21.73;5.77;;;;;;;33.05;28.00;97099.31;8348977;28;20231;-77
2022/06/19 18:26:00;;;;;;;16.40;5.63;;;;;;;33.13;27.98;97098.19;8349054;28;20235;-77
2022/06/19 18:30:12;;;;;;;12.93;5.47;;;;;;;33.08;27.79;97094.31;8348798;28;20235;-77
2022/06/19 18:34:16;;;;;;;15.80;5.67;;;;;;;32.86;28.09;97091.41;8348693;28;20266;-77
2022/06/19 18:38:19;;;;;;;16.97;6.10;;;;;;;32.76;28.26;97101.03;8348384;28;20242;-77
2022/06/19 18:42:23;;;;;;;13.37;5.10;;;;;;;32.69;28.72;97098.47;8348092;28;20234;-76
2022/06/19 18:46:28;;;;;;;10.37;5.10;;;;;;;32.60;28.90;97097.19;8348368;28;20541;-77
2022/06/19 18:50:53;;;;;;;13.93;5.60;;;;;;;32.50;29.37;97101.22;8347498;28;20228;-77
2022/06/19 18:54:56;;;;;;;15.17;5.20;;;;;;;32.39;29.69;97110.03;8348115;28;20235;-78
2022/06/19 18:58:59;;;;;;;12.83;5.67;;;;;;;32.26;30.30;97119.06;8347883;28;20241;-78
2022/06/19 19:03:03;;;;;;;18.10;6.33;;;;;;;32.17;30.64;97111.56;8347972;28;20227;-77
2022/06/19 19:07:09;;;;;;;14.07;6.00;;;;;;;32.06;31.21;97111.31;8347728;28;20236;-77
2022/06/19 19:11:11;;;;;;;16.13;6.40;;;;;;;31.99;31.04;97123.09;8347646;28;20231;-77
2022/06/19 19:15:20;;;;;;;18.43;6.57;;;;;;;31.88;32.17;97124.69;8347612;28;20557;-77
2022/06/19 19:19:27;;;;;;;20.07;6.93;;;;;;;31.80;31.32;97135.69;8347199;28;20230;-77
2022/06/19 19:23:30;;;;;;;19.47;6.30;;;;;;;31.71;31.82;97132.50;8347503;28;20234;-77
2022/06/19 19:27:33;;;;;;;15.40;6.43;;;;;;;31.65;31.57;97141.41;8347333;28;20235;-77
2022/06/19 19:31:37;;;;;;;14.57;6.40;;;;;;;31.54;32.85;97140.28;8347333;28;20232;-77
2022/06/19 19:35:44;;;;;;;14.73;6.93;;;;;;;31.38;34.66;97142.47;8347300;28;20244;-77